Fallsvale, California
Current Conditions -  °F | °C
As of 9:35 AM on Sunday 23 Nov 2014 (Local Time) from KL35 Reporting Station
Clear Clear  
Wind Chill: 35°   Ceiling: Unl
Heat Index: 41°   Visibility: 10mi
Dew Point:   Wind: 10mph
Humidity: 18%   Direction: 70°ENE
Pressure: 30.36"   Gusts: 22mph
Location:  34.0725°N, 116.883°W
Report Text: KL35 231735Z AUTO 07009G19KT 034V094 10SM CLR 05/M18 A3036 RMK AO2
Loading
Personal Weather Stations






























Interactive Weather Map New forecast layout! Learn more

10-Day Weather Forecast

Advertisements
Track Severe Weather on mobile